createdAt,value
2018-07-31T00:00:18.026Z,25.00
2018-07-31T00:02:46.605Z,25.00
2018-07-31T00:05:15.191Z,24.90
2018-07-31T00:07:43.764Z,24.90
2018-07-31T00:10:12.345Z,24.90
2018-07-31T00:12:40.932Z,24.90
2018-07-31T00:15:11.289Z,24.80
2018-07-31T00:17:39.898Z,24.80
2018-07-31T00:20:08.472Z,24.80
2018-07-31T00:22:37.049Z,24.70
2018-07-31T00:25:05.637Z,24.70
2018-07-31T00:27:34.168Z,24.70
2018-07-31T00:32:30.989Z,24.60
2018-07-31T00:34:59.539Z,24.60
2018-07-31T00:37:28.135Z,24.60
2018-07-31T00:39:57.085Z,24.60
2018-07-31T00:42:25.711Z,24.60
2018-07-31T00:44:54.225Z,24.50
2018-07-31T00:47:22.792Z,24.60
2018-07-31T00:49:51.347Z,24.60
2018-07-31T00:52:19.903Z,24.50
2018-07-31T00:54:48.457Z,24.50
2018-07-31T00:57:17.137Z,24.50
2018-07-31T00:59:45.673Z,24.50
2018-07-31T01:02:14.273Z,24.50
2018-07-31T01:04:42.868Z,24.50
2018-07-31T01:07:11.464Z,24.60
2018-07-31T01:12:08.261Z,24.50
2018-07-31T01:14:36.822Z,24.50
2018-07-31T01:17:05.402Z,24.50
2018-07-31T01:19:34.034Z,24.40
2018-07-31T01:22:02.617Z,24.50
2018-07-31T01:24:31.167Z,24.40
2018-07-31T01:26:59.723Z,24.40
2018-07-31T01:29:28.286Z,24.40
2018-07-31T01:31:56.863Z,24.40
2018-07-31T01:34:25.390Z,24.40
2018-07-31T01:36:53.980Z,24.40
2018-07-31T01:39:22.584Z,24.40
2018-07-31T01:41:51.139Z,24.30
2018-07-31T01:44:19.731Z,24.30
2018-07-31T01:46:48.261Z,24.30
2018-07-31T01:51:45.058Z,24.20
2018-07-31T01:54:13.609Z,24.20
2018-07-31T02:01:38.582Z,24.20
2018-07-31T02:04:07.207Z,24.20
2018-07-31T02:06:35.762Z,24.20
2018-07-31T02:09:06.033Z,24.10
2018-07-31T02:11:34.573Z,24.10
2018-07-31T02:14:03.242Z,24.10
2018-07-31T02:18:59.998Z,24.00
2018-07-31T02:21:28.529Z,24.00
2018-07-31T02:23:57.060Z,24.00
2018-07-31T02:26:25.640Z,24.00
2018-07-31T02:28:54.139Z,23.90
2018-07-31T02:31:22.632Z,23.90
2018-07-31T02:33:51.183Z,23.90
2018-07-31T02:36:19.720Z,23.90
2018-07-31T02:38:48.312Z,23.90
2018-07-31T02:43:45.069Z,23.80
2018-07-31T02:48:41.801Z,23.80
2018-07-31T02:51:10.386Z,23.80
2018-07-31T02:53:38.855Z,23.80
2018-07-31T02:56:07.400Z,23.80
2018-07-31T02:58:35.907Z,23.80
2018-07-31T03:01:04.437Z,23.70
2018-07-31T03:03:32.923Z,23.70
2018-07-31T03:06:01.453Z,23.70
2018-07-31T03:08:29.968Z,23.70
2018-07-31T03:10:58.487Z,23.60
2018-07-31T03:13:26.992Z,23.60
2018-07-31T03:15:55.549Z,23.60
2018-07-31T03:18:24.078Z,23.60
2018-07-31T03:20:52.603Z,23.50
2018-07-31T03:23:21.119Z,23.50
2018-07-31T03:25:49.622Z,23.50
2018-07-31T03:28:18.152Z,23.50
2018-07-31T03:30:46.651Z,23.50
2018-07-31T03:33:15.403Z,23.50
2018-07-31T03:35:43.878Z,23.40
2018-07-31T03:38:12.426Z,23.40
2018-07-31T03:40:40.953Z,23.30
2018-07-31T03:43:09.491Z,23.40
2018-07-31T03:45:37.997Z,23.30
2018-07-31T03:48:06.528Z,23.30
2018-07-31T03:53:03.215Z,23.30
2018-07-31T03:55:31.776Z,23.20
2018-07-31T03:58:00.299Z,23.20
2018-07-31T04:00:28.767Z,23.20
2018-07-31T04:02:57.392Z,23.20
2018-07-31T04:05:26.046Z,23.20
2018-07-31T04:07:54.587Z,23.20
2018-07-31T04:10:23.322Z,23.20
2018-07-31T04:12:51.936Z,23.20
2018-07-31T04:17:53.860Z,23.20
2018-07-31T04:20:22.942Z,23.20
2018-07-31T04:22:51.907Z,23.20
2018-07-31T04:25:20.532Z,23.20
2018-07-31T04:27:49.143Z,23.20
2018-07-31T04:32:46.224Z,23.30
2018-07-31T04:37:43.103Z,23.30
2018-07-31T04:40:11.719Z,23.30
2018-07-31T04:42:40.345Z,23.30
2018-07-31T04:45:10.038Z,23.30
2018-07-31T04:47:39.529Z,23.30
2018-07-31T04:50:09.729Z,23.40
2018-07-31T04:52:39.487Z,23.30
2018-07-31T04:55:08.355Z,23.40
2018-07-31T04:57:36.830Z,23.40
2018-07-31T05:00:07.968Z,23.50
2018-07-31T05:02:37.329Z,23.50
2018-07-31T05:05:06.162Z,23.60
2018-07-31T05:07:37.658Z,23.60
2018-07-31T05:10:08.742Z,23.60
2018-07-31T05:12:38.136Z,23.70
2018-07-31T05:15:06.915Z,23.70
2018-07-31T05:17:36.311Z,23.70
2018-07-31T05:20:06.068Z,23.80
2018-07-31T05:22:34.568Z,23.80
2018-07-31T05:25:03.125Z,23.80
2018-07-31T05:27:32.183Z,23.90
2018-07-31T05:30:01.070Z,23.90
2018-07-31T05:32:30.019Z,23.90
2018-07-31T05:34:58.524Z,23.90
2018-07-31T05:37:28.161Z,23.90
2018-07-31T05:39:56.887Z,24.00
2018-07-31T05:42:26.252Z,24.00
2018-07-31T05:44:54.734Z,24.10
2018-07-31T05:47:23.427Z,24.00
2018-07-31T05:49:51.971Z,24.10
2018-07-31T05:52:20.626Z,24.10
2018-07-31T05:54:49.425Z,24.20
2018-07-31T05:57:18.222Z,24.30
2018-07-31T05:59:46.786Z,24.30
2018-07-31T06:02:15.929Z,24.40
2018-07-31T06:04:44.794Z,24.50
2018-07-31T06:07:15.554Z,24.60
2018-07-31T06:09:44.227Z,24.70
2018-07-31T06:12:12.787Z,24.80
2018-07-31T06:14:42.502Z,24.80
2018-07-31T06:17:11.031Z,24.90
2018-07-31T06:19:39.779Z,25.00
2018-07-31T06:22:08.471Z,25.00
2018-07-31T06:24:37.323Z,25.10
2018-07-31T06:27:06.212Z,25.20
2018-07-31T06:29:34.763Z,25.30
2018-07-31T06:32:03.325Z,25.30
2018-07-31T06:37:00.083Z,25.50
2018-07-31T06:41:56.856Z,25.70
2018-07-31T06:44:25.423Z,25.70
2018-07-31T06:46:53.991Z,25.80
2018-07-31T06:49:22.523Z,25.90
2018-07-31T06:51:51.071Z,26.00
2018-07-31T06:54:19.572Z,26.00
2018-07-31T06:56:48.140Z,26.00
2018-07-31T06:59:16.663Z,26.10
2018-07-31T07:04:13.376Z,26.10
2018-07-31T07:06:42.017Z,26.20
2018-07-31T07:09:11.616Z,26.10
2018-07-31T07:11:40.488Z,26.20
2018-07-31T07:14:09.029Z,26.20
2018-07-31T07:16:37.836Z,26.30
2018-07-31T07:19:06.405Z,26.30
2018-07-31T07:21:34.991Z,26.40
2018-07-31T07:24:03.518Z,26.50
2018-07-31T07:26:32.098Z,26.60
2018-07-31T07:29:00.622Z,26.60
2018-07-31T07:31:29.131Z,26.70
2018-07-31T07:33:57.802Z,26.70
2018-07-31T07:36:26.305Z,26.80
2018-07-31T07:38:54.917Z,27.00
2018-07-31T07:41:23.481Z,27.10
2018-07-31T07:43:51.993Z,27.30
2018-07-31T07:46:20.589Z,27.60
2018-07-31T07:48:49.135Z,27.80
2018-07-31T07:53:45.952Z,28.10
2018-07-31T07:56:14.447Z,28.20
2018-07-31T07:58:43.031Z,28.30
2018-07-31T08:01:11.494Z,28.40
2018-07-31T08:03:40.092Z,28.50
2018-07-31T08:06:08.604Z,28.60
2018-07-31T08:08:37.172Z,28.70
2018-07-31T08:11:05.676Z,28.70
2018-07-31T08:13:34.188Z,28.80
2018-07-31T08:16:02.776Z,28.90
2018-07-31T08:18:31.462Z,28.90
2018-07-31T08:21:00.121Z,29.00
2018-07-31T08:23:28.659Z,29.00
2018-07-31T08:25:57.245Z,29.10
2018-07-31T08:30:54.007Z,29.10
2018-07-31T08:38:18.978Z,29.30
2018-07-31T08:40:47.493Z,29.30
2018-07-31T08:43:16.094Z,29.30
2018-07-31T08:45:44.625Z,29.40
2018-07-31T08:48:13.158Z,29.40
2018-07-31T08:50:41.674Z,29.60
2018-07-31T08:53:10.177Z,29.70
2018-07-31T08:55:38.707Z,29.80
2018-07-31T08:58:07.202Z,29.90
2018-07-31T09:00:35.683Z,29.90
2018-07-31T09:03:04.224Z,29.90
2018-07-31T09:08:00.858Z,30.10
2018-07-31T09:10:29.367Z,30.10
2018-07-31T09:12:57.935Z,30.10
2018-07-31T09:15:26.438Z,30.10
2018-07-31T09:17:55.021Z,30.20
2018-07-31T09:20:23.601Z,30.30
2018-07-31T09:22:52.143Z,30.30
2018-07-31T09:25:20.683Z,30.40
2018-07-31T09:30:17.382Z,30.60
2018-07-31T09:32:51.071Z,30.70
2018-07-31T09:35:19.589Z,30.70
2018-07-31T09:37:48.192Z,30.70
2018-07-31T09:40:16.696Z,30.70
2018-07-31T09:42:45.286Z,30.70
2018-07-31T09:45:13.718Z,30.70
2018-07-31T09:47:42.227Z,30.70
2018-07-31T09:50:10.704Z,30.80
2018-07-31T09:52:39.244Z,30.90
2018-07-31T09:55:07.727Z,31.00
2018-07-31T09:57:36.343Z,31.20
2018-07-31T10:00:05.951Z,31.30
2018-07-31T10:02:34.412Z,31.40
2018-07-31T10:05:02.961Z,31.40
2018-07-31T10:07:31.444Z,31.40
2018-07-31T10:09:59.938Z,31.40
2018-07-31T10:12:28.397Z,31.40
2018-07-31T10:14:56.908Z,31.50
2018-07-31T10:17:25.426Z,31.60
2018-07-31T10:19:53.950Z,31.60
2018-07-31T10:22:22.484Z,31.60
2018-07-31T10:24:50.962Z,31.70
2018-07-31T10:27:19.468Z,31.70
2018-07-31T10:29:47.993Z,31.80
2018-07-31T10:32:16.475Z,31.80
2018-07-31T10:34:44.948Z,31.90
2018-07-31T10:39:41.703Z,32.00
2018-07-31T10:44:38.414Z,32.00
2018-07-31T10:47:06.898Z,32.00
2018-07-31T10:49:35.416Z,32.00
2018-07-31T10:52:04.122Z,32.00
2018-07-31T10:54:32.621Z,32.00
2018-07-31T10:59:29.344Z,32.10
2018-07-31T11:01:57.912Z,32.20
2018-07-31T11:04:26.376Z,32.20
2018-07-31T11:06:54.954Z,32.20
2018-07-31T11:11:51.658Z,32.10
2018-07-31T11:14:20.136Z,32.00
2018-07-31T11:16:48.615Z,32.10
2018-07-31T11:19:17.128Z,32.00
2018-07-31T11:21:45.652Z,32.00
2018-07-31T11:24:14.177Z,32.00
2018-07-31T11:26:42.809Z,32.10
2018-07-31T11:29:11.310Z,32.20
2018-07-31T11:31:39.862Z,32.20
2018-07-31T11:34:08.611Z,32.30
2018-07-31T11:36:37.206Z,32.50
2018-07-31T11:39:08.604Z,32.60
2018-07-31T11:41:37.594Z,32.70
2018-07-31T11:44:06.198Z,32.80
2018-07-31T11:46:34.837Z,32.90
2018-07-31T11:49:03.394Z,32.90
2018-07-31T11:56:28.551Z,32.70
2018-07-31T12:01:25.465Z,32.70
2018-07-31T12:03:54.161Z,32.70
2018-07-31T12:06:22.748Z,32.70
2018-07-31T12:08:51.246Z,32.70
2018-07-31T12:11:19.763Z,32.70
2018-07-31T12:13:48.395Z,32.70
2018-07-31T12:16:16.925Z,32.70
2018-07-31T12:18:45.440Z,32.80
2018-07-31T12:21:14.038Z,32.90
2018-07-31T12:26:10.785Z,32.90
2018-07-31T12:28:39.303Z,32.90
2018-07-31T12:31:07.866Z,32.90
2018-07-31T12:33:36.427Z,32.90
2018-07-31T12:36:05.055Z,33.00
2018-07-31T12:38:33.673Z,33.10
2018-07-31T12:43:30.506Z,33.20
2018-07-31T12:45:58.949Z,33.30
2018-07-31T12:48:27.442Z,33.20
2018-07-31T12:50:55.973Z,33.30
2018-07-31T12:53:24.677Z,33.20
2018-07-31T12:55:53.478Z,33.10
2018-07-31T12:58:22.058Z,33.10
2018-07-31T13:00:50.536Z,33.10
2018-07-31T13:03:19.076Z,33.30
2018-07-31T13:05:48.019Z,33.50
2018-07-31T13:08:16.646Z,33.70
2018-07-31T13:10:45.257Z,33.90
2018-07-31T13:13:13.950Z,34.10
2018-07-31T13:15:42.734Z,34.20
2018-07-31T13:18:11.368Z,34.30
2018-07-31T13:20:39.912Z,34.40
2018-07-31T13:23:08.448Z,34.40
2018-07-31T13:25:36.918Z,34.40
2018-07-31T13:28:05.474Z,34.30
2018-07-31T13:30:33.953Z,34.30
2018-07-31T13:33:02.591Z,34.20
2018-07-31T13:35:31.897Z,34.20
2018-07-31T13:38:00.885Z,34.20
2018-07-31T13:40:29.467Z,34.20
2018-07-31T13:42:58.071Z,34.30
2018-07-31T13:45:26.739Z,34.50
2018-07-31T13:50:23.622Z,34.40
2018-07-31T13:52:52.202Z,34.40
2018-07-31T13:55:20.717Z,34.40
2018-07-31T13:57:49.299Z,34.40
2018-07-31T14:00:17.817Z,34.30
2018-07-31T14:02:47.153Z,34.30
2018-07-31T14:07:43.849Z,34.50
2018-07-31T14:10:12.402Z,34.50
2018-07-31T14:15:10.032Z,34.80
2018-07-31T14:17:38.581Z,34.80
2018-07-31T14:22:35.406Z,35.10
2018-07-31T14:25:04.154Z,35.10
2018-07-31T14:27:32.685Z,35.10
2018-07-31T14:30:01.185Z,35.20
2018-07-31T14:32:29.717Z,35.20
2018-07-31T14:34:58.314Z,35.20
2018-07-31T14:37:26.807Z,35.10
2018-07-31T14:39:55.357Z,35.10
2018-07-31T14:42:23.939Z,35.00
2018-07-31T14:44:52.498Z,35.00
2018-07-31T14:47:21.408Z,35.00
2018-07-31T14:49:51.017Z,35.00
2018-07-31T14:52:19.646Z,35.00
2018-07-31T14:54:48.304Z,34.80
2018-07-31T14:57:16.956Z,34.60
2018-07-31T14:59:45.468Z,34.40
2018-07-31T15:02:14.138Z,34.40
2018-07-31T15:04:42.682Z,34.40
2018-07-31T15:07:11.277Z,34.40
2018-07-31T15:09:39.913Z,34.40
2018-07-31T15:12:08.386Z,34.40
2018-07-31T15:14:36.971Z,34.40
2018-07-31T15:17:05.894Z,34.40
2018-07-31T15:19:34.506Z,34.40
2018-07-31T15:22:03.275Z,34.40
2018-07-31T15:24:31.863Z,34.40
2018-07-31T15:27:00.362Z,34.50
2018-07-31T15:29:28.914Z,34.60
2018-07-31T15:31:57.548Z,34.60
2018-07-31T15:36:54.514Z,34.70
2018-07-31T15:46:48.781Z,34.50
2018-07-31T15:49:17.589Z,34.40
2018-07-31T15:51:46.124Z,34.50
2018-07-31T15:56:43.039Z,34.60
2018-07-31T15:59:11.754Z,34.60
2018-07-31T16:01:40.331Z,34.60
2018-07-31T16:04:08.911Z,34.70
2018-07-31T16:06:37.609Z,34.60
2018-07-31T16:09:08.547Z,34.40
2018-07-31T16:11:37.111Z,34.10
2018-07-31T16:14:05.981Z,33.90
2018-07-31T16:16:34.586Z,33.80
2018-07-31T16:21:31.398Z,33.60
2018-07-31T16:23:59.930Z,33.70
2018-07-31T16:26:28.611Z,33.60
2018-07-31T16:28:57.229Z,33.50
2018-07-31T16:31:25.778Z,33.40
2018-07-31T16:33:54.595Z,33.30
2018-07-31T16:36:23.262Z,33.30
2018-07-31T16:38:51.818Z,33.20
2018-07-31T16:41:20.441Z,33.20
2018-07-31T16:43:49.014Z,33.10
2018-07-31T16:46:17.970Z,32.70
2018-07-31T16:48:46.818Z,32.40
2018-07-31T16:51:15.509Z,32.00
2018-07-31T16:53:44.130Z,31.70
2018-07-31T16:56:12.998Z,31.50
2018-07-31T16:58:42.226Z,31.40
2018-07-31T17:03:39.146Z,31.00
2018-07-31T17:06:07.986Z,30.80
2018-07-31T17:08:36.516Z,30.50
2018-07-31T17:11:06.436Z,30.40
2018-07-31T17:13:35.091Z,30.20
2018-07-31T17:16:04.277Z,30.10
2018-07-31T17:21:01.241Z,29.90
2018-07-31T17:23:30.004Z,29.80
2018-07-31T17:25:58.539Z,29.70
2018-07-31T17:30:55.689Z,29.60
2018-07-31T17:33:24.236Z,29.40
2018-07-31T17:35:52.902Z,29.40
2018-07-31T17:38:21.563Z,29.30
2018-07-31T17:40:50.211Z,29.20
2018-07-31T17:43:18.818Z,29.20
2018-07-31T17:45:47.603Z,29.10
2018-07-31T17:48:17.187Z,29.00
2018-07-31T17:50:45.732Z,29.00
2018-07-31T17:53:14.267Z,28.90
2018-07-31T17:55:43.023Z,28.90
2018-07-31T18:00:40.746Z,28.70
2018-07-31T18:03:09.313Z,28.70
2018-07-31T18:05:38.062Z,28.60
2018-07-31T18:08:06.763Z,28.50
2018-07-31T18:10:35.423Z,28.50
2018-07-31T18:13:03.884Z,28.40
2018-07-31T18:15:32.407Z,28.30
2018-07-31T18:18:01.045Z,28.20
2018-07-31T18:20:29.889Z,28.10
2018-07-31T18:22:58.656Z,28.00
2018-07-31T18:25:27.171Z,28.00
2018-07-31T18:27:55.665Z,27.90
2018-07-31T18:30:24.331Z,27.90
2018-07-31T18:32:52.930Z,27.80
2018-07-31T18:35:21.451Z,27.80
2018-07-31T18:37:50.681Z,27.60
2018-07-31T18:40:19.375Z,27.50
2018-07-31T18:42:48.197Z,27.50
2018-07-31T18:45:16.693Z,27.40
2018-07-31T18:47:45.208Z,27.30
2018-07-31T18:50:14.049Z,27.20
2018-07-31T18:52:42.531Z,27.20
2018-07-31T18:55:11.051Z,27.10
2018-07-31T18:57:39.715Z,27.10
2018-07-31T19:00:09.269Z,27.00
2018-07-31T19:10:03.569Z,26.80
2018-07-31T19:12:32.096Z,26.70
2018-07-31T19:15:00.874Z,26.60
2018-07-31T19:17:29.498Z,26.60
2018-07-31T19:19:58.589Z,26.60
2018-07-31T19:24:55.845Z,26.50
2018-07-31T19:27:24.552Z,26.40
2018-07-31T19:29:53.240Z,26.30
2018-07-31T19:32:21.785Z,26.30
2018-07-31T19:34:50.585Z,26.20
2018-07-31T19:37:19.207Z,26.20
2018-07-31T19:39:48.650Z,26.10
2018-07-31T19:42:17.252Z,26.10
2018-07-31T19:44:46.185Z,26.00
2018-07-31T19:47:15.717Z,26.00
2018-07-31T19:49:46.614Z,25.90
2018-07-31T19:52:17.240Z,25.90
2018-07-31T19:54:45.903Z,25.90
2018-07-31T19:57:14.583Z,25.80
2018-07-31T20:02:43.481Z,25.70
2018-07-31T20:05:15.601Z,25.60
2018-07-31T20:07:44.497Z,25.60
2018-07-31T20:10:13.842Z,25.50
2018-07-31T20:12:43.580Z,25.50
2018-07-31T20:15:13.898Z,25.40
2018-07-31T20:20:10.776Z,25.30
2018-07-31T20:22:41.483Z,25.20
2018-07-31T20:25:10.979Z,25.20
2018-07-31T20:27:40.434Z,25.10
2018-07-31T20:30:09.080Z,25.10
2018-07-31T20:32:37.850Z,25.00
2018-07-31T20:35:07.298Z,25.00
2018-07-31T20:37:36.821Z,25.00
2018-07-31T20:40:06.761Z,24.90
2018-07-31T20:42:35.791Z,24.90
2018-07-31T20:45:05.672Z,24.90
2018-07-31T20:47:34.890Z,24.90
2018-07-31T20:50:03.894Z,24.90
2018-07-31T20:52:32.890Z,24.90
2018-07-31T20:55:02.179Z,24.90
2018-07-31T20:57:30.705Z,24.80
2018-07-31T20:59:59.289Z,24.80
2018-07-31T21:02:27.917Z,24.80
2018-07-31T21:04:56.642Z,24.80
2018-07-31T21:07:26.372Z,24.80
2018-07-31T21:09:55.716Z,24.80
2018-07-31T21:12:24.350Z,24.80
2018-07-31T21:14:52.920Z,24.80
2018-07-31T21:17:21.550Z,24.80
2018-07-31T21:19:50.208Z,24.80
2018-07-31T21:22:19.024Z,24.80
2018-07-31T21:24:47.783Z,24.70
2018-07-31T21:27:16.547Z,24.80
2018-07-31T21:29:45.960Z,24.70
2018-07-31T21:32:14.569Z,24.70
2018-07-31T21:34:43.344Z,24.60
2018-07-31T21:37:12.015Z,24.60
2018-07-31T21:39:40.648Z,24.60
2018-07-31T21:42:09.821Z,24.60
2018-07-31T21:44:38.542Z,24.60
2018-07-31T21:47:07.491Z,24.50
2018-07-31T21:49:36.335Z,24.50
2018-07-31T21:52:05.066Z,24.50
2018-07-31T21:54:33.610Z,24.50
2018-07-31T21:57:02.200Z,24.40
2018-07-31T21:59:31.554Z,24.40
2018-07-31T22:02:00.216Z,24.40
2018-07-31T22:04:28.771Z,24.40
2018-07-31T22:06:57.254Z,24.40
2018-07-31T22:09:31.726Z,24.40
2018-07-31T22:12:00.587Z,24.30
2018-07-31T22:14:29.310Z,24.30
2018-07-31T22:16:57.951Z,24.30
2018-07-31T22:19:26.509Z,24.20
2018-07-31T22:21:55.058Z,24.20
2018-07-31T22:24:23.848Z,24.10
2018-07-31T22:26:52.971Z,24.10
2018-07-31T22:29:21.693Z,24.00
2018-07-31T22:34:18.521Z,24.00
2018-07-31T22:36:47.326Z,24.00
2018-07-31T22:41:44.239Z,23.90
2018-07-31T22:44:13.136Z,23.90
2018-07-31T22:46:41.714Z,23.80
2018-07-31T22:49:10.463Z,23.80
2018-07-31T22:51:44.697Z,23.80
2018-07-31T22:54:13.327Z,23.80
2018-07-31T22:56:41.971Z,23.80
2018-07-31T22:59:10.654Z,23.80
2018-07-31T23:01:39.350Z,23.70
2018-07-31T23:04:07.979Z,23.70
2018-07-31T23:06:37.012Z,23.60
2018-07-31T23:09:09.085Z,23.60
2018-07-31T23:11:38.441Z,23.60
2018-07-31T23:14:07.045Z,23.60
2018-07-31T23:16:36.472Z,23.60
2018-07-31T23:19:05.118Z,23.60
2018-07-31T23:21:33.748Z,23.60
2018-07-31T23:24:02.336Z,23.50
2018-07-31T23:26:30.857Z,23.50
2018-07-31T23:28:59.444Z,23.50
2018-07-31T23:31:28.076Z,23.50
2018-07-31T23:33:56.847Z,23.50
2018-07-31T23:38:53.663Z,23.30
2018-07-31T23:41:22.363Z,23.20
2018-07-31T23:43:50.914Z,23.10
2018-07-31T23:48:47.744Z,23.00
2018-07-31T23:51:16.260Z,22.90
2018-07-31T23:56:13.180Z,22.90
2018-07-31T23:58:41.699Z,22.80
